createdAt,value
2022-08-25T00:00:14.702Z,6.80
2022-08-25T00:02:54.975Z,7.97
2022-08-25T00:05:32.203Z,4.32
2022-08-25T00:08:02.370Z,4.65
2022-08-25T00:10:30.370Z,3.35
2022-08-25T00:12:57.895Z,7.10
2022-08-25T00:15:25.610Z,7.90
2022-08-25T00:17:53.416Z,4.40
2022-08-25T00:20:22.634Z,6.82
2022-08-25T00:25:20.836Z,5.88
2022-08-25T00:27:48.982Z,4.35
2022-08-25T00:30:17.413Z,5.80
2022-08-25T00:32:48.916Z,5.20
2022-08-25T00:35:25.891Z,10.48
2022-08-25T00:37:53.686Z,5.70
2022-08-25T00:40:21.897Z,7.20
2022-08-25T00:42:49.494Z,5.50
2022-08-25T00:45:18.291Z,12.15
2022-08-25T00:47:45.944Z,7.22
2022-08-25T00:50:13.558Z,6.20
2022-08-25T00:52:47.975Z,4.80
2022-08-25T00:55:31.231Z,4.40
2022-08-25T00:58:06.971Z,2.92
2022-08-25T01:00:41.397Z,6.32
2022-08-25T01:03:09.352Z,3.25
2022-08-25T01:05:38.003Z,6.78
2022-08-25T01:08:07.652Z,5.32
2022-08-25T01:10:43.011Z,6.60
2022-08-25T01:13:33.544Z,8.25
2022-08-25T01:16:01.780Z,2.95
2022-08-25T01:18:29.806Z,4.55
2022-08-25T01:20:59.986Z,6.38
2022-08-25T01:23:27.720Z,3.28
2022-08-25T01:26:19.688Z,5.70
2022-08-25T01:29:11.892Z,3.30
2022-08-25T01:31:41.758Z,3.38
2022-08-25T01:34:12.546Z,6.97
2022-08-25T01:36:42.452Z,8.13
2022-08-25T01:39:11.634Z,4.97
2022-08-25T01:42:06.795Z,6.72
2022-08-25T01:44:36.736Z,4.35
2022-08-25T01:47:06.144Z,7.05
2022-08-25T01:49:33.944Z,2.95
2022-08-25T01:52:25.762Z,5.15
2022-08-25T01:54:53.337Z,4.43
2022-08-25T01:57:22.157Z,8.57
2022-08-25T01:59:50.099Z,5.68
2022-08-25T02:02:18.458Z,3.92
2022-08-25T02:04:46.078Z,3.50
2022-08-25T02:07:13.596Z,3.70
2022-08-25T02:09:41.076Z,5.68
2022-08-25T02:12:09.571Z,7.07
2022-08-25T02:14:37.910Z,6.07
2022-08-25T02:17:05.968Z,5.32
2022-08-25T02:19:33.595Z,3.78
2022-08-25T02:22:01.612Z,9.23
2022-08-25T02:24:29.226Z,5.30
2022-08-25T02:26:58.142Z,5.45
2022-08-25T02:29:25.625Z,9.63
2022-08-25T02:31:53.210Z,3.90
2022-08-25T02:34:20.906Z,5.75
2022-08-25T02:36:48.509Z,4.80
2022-08-25T02:39:16.069Z,4.97
2022-08-25T02:41:43.697Z,4.75
2022-08-25T02:44:11.224Z,6.22
2022-08-25T02:46:39.127Z,4.72
2022-08-25T02:49:07.794Z,7.88
2022-08-25T02:51:36.636Z,6.22
2022-08-25T02:54:05.496Z,6.95
2022-08-25T02:56:33.650Z,8.68
2022-08-25T02:59:02.494Z,5.43
2022-08-25T03:01:31.453Z,9.70
2022-08-25T03:04:01.861Z,7.07
2022-08-25T03:06:30.131Z,5.38
2022-08-25T03:08:57.661Z,3.67
2022-08-25T03:11:26.657Z,3.88
2022-08-25T03:13:56.452Z,6.40
2022-08-25T03:16:27.847Z,5.80
2022-08-25T03:18:56.668Z,7.10
2022-08-25T03:21:25.595Z,5.43
2022-08-25T03:23:53.474Z,9.05
2022-08-25T03:26:39.393Z,5.07
2022-08-25T03:29:07.534Z,5.38
2022-08-25T03:31:35.710Z,5.05
2022-08-25T03:34:03.428Z,5.40
2022-08-25T03:36:31.087Z,6.88
2022-08-25T03:39:01.467Z,5.72
2022-08-25T03:41:32.717Z,4.50
2022-08-25T03:44:01.603Z,7.55
2022-08-25T03:46:53.992Z,8.07
2022-08-25T03:49:24.077Z,4.97
2022-08-25T03:51:53.639Z,6.22
2022-08-25T03:54:25.156Z,4.07
2022-08-25T03:56:52.845Z,4.83
2022-08-25T03:59:20.775Z,6.05
2022-08-25T04:01:54.010Z,3.95
2022-08-25T04:04:22.828Z,6.53
2022-08-25T04:06:50.337Z,10.10
2022-08-25T04:09:17.842Z,5.25
2022-08-25T04:11:45.349Z,5.45
2022-08-25T04:14:16.642Z,5.72
2022-08-25T04:16:45.530Z,7.63
2022-08-25T04:19:13.218Z,6.85
2022-08-25T04:21:41.999Z,6.55
2022-08-25T04:24:11.634Z,4.65
2022-08-25T04:26:43.502Z,5.20
2022-08-25T04:29:13.241Z,6.22
2022-08-25T04:31:42.863Z,6.07
2022-08-25T04:34:28.818Z,10.13
2022-08-25T04:37:03.079Z,5.07
2022-08-25T04:39:31.214Z,6.35
2022-08-25T04:42:00.609Z,6.43
2022-08-25T04:44:29.203Z,6.35
2022-08-25T04:46:57.635Z,13.13
2022-08-25T04:49:25.274Z,18.15
2022-08-25T04:51:53.000Z,8.55
2022-08-25T04:54:23.317Z,6.55
2022-08-25T04:56:54.313Z,8.40
2022-08-25T04:59:30.021Z,9.82
2022-08-25T05:02:02.397Z,6.53
2022-08-25T05:06:58.719Z,10.80
2022-08-25T05:09:27.188Z,7.13
2022-08-25T05:11:56.010Z,9.13
2022-08-25T05:14:26.586Z,19.50
2022-08-25T05:16:58.088Z,7.10
2022-08-25T05:19:26.602Z,11.93
2022-08-25T05:21:54.648Z,12.30
2022-08-25T05:24:26.013Z,11.30
2022-08-25T05:26:53.677Z,8.02
2022-08-25T05:29:21.716Z,7.25
2022-08-25T05:31:50.773Z,7.97
2022-08-25T05:34:19.820Z,13.85
2022-08-25T05:36:48.657Z,9.90
2022-08-25T05:39:16.229Z,7.25
2022-08-25T05:41:44.253Z,8.50
2022-08-25T05:44:12.896Z,10.07
2022-08-25T05:46:40.448Z,12.27
2022-08-25T05:49:07.973Z,14.95
2022-08-25T05:51:35.465Z,7.00
2022-08-25T05:54:03.609Z,13.90
2022-08-25T05:56:31.380Z,8.25
2022-08-25T05:58:58.861Z,6.47
2022-08-25T06:01:47.607Z,24.20
2022-08-25T06:04:18.247Z,12.73
2022-08-25T06:06:45.777Z,8.05
2022-08-25T06:09:14.009Z,9.63
2022-08-25T06:11:41.879Z,12.63
2022-08-25T06:14:10.312Z,5.25
2022-08-25T06:16:39.038Z,9.30
2022-08-25T06:19:08.542Z,5.55
2022-08-25T06:21:39.115Z,7.32
2022-08-25T06:24:10.954Z,11.57
2022-08-25T06:26:41.057Z,16.73
2022-08-25T06:29:08.489Z,7.57
2022-08-25T06:31:38.463Z,11.05
2022-08-25T06:34:06.259Z,8.00
2022-08-25T06:36:34.610Z,7.72
2022-08-25T06:39:02.169Z,7.10
2022-08-25T06:41:36.964Z,7.20
2022-08-25T06:44:05.418Z,12.38
2022-08-25T06:46:36.508Z,3.25
2022-08-25T06:49:08.155Z,7.43
2022-08-25T06:51:36.333Z,4.15
2022-08-25T06:54:10.054Z,8.15
2022-08-25T06:56:39.683Z,3.85
2022-08-25T06:59:08.747Z,2.75
2022-08-25T07:01:37.394Z,5.47
2022-08-25T07:04:11.807Z,4.72
2022-08-25T07:06:41.003Z,4.85
2022-08-25T07:09:09.992Z,3.70
2022-08-25T07:11:38.212Z,3.50
2022-08-25T07:14:07.698Z,6.45
2022-08-25T07:16:36.093Z,3.00
2022-08-25T07:19:05.615Z,7.18
2022-08-25T07:21:38.969Z,4.38
2022-08-25T07:24:10.880Z,6.40
2022-08-25T07:26:40.532Z,4.32
2022-08-25T07:29:20.013Z,2.58
2022-08-25T07:31:47.995Z,7.10
2022-08-25T07:34:34.777Z,5.95
2022-08-25T07:37:06.059Z,5.28
2022-08-25T07:39:34.644Z,4.38
2022-08-25T07:42:02.339Z,6.78
2022-08-25T07:44:30.031Z,7.55
2022-08-25T07:46:57.755Z,6.93
2022-08-25T07:49:26.747Z,4.28
2022-08-25T07:52:06.447Z,9.82
2022-08-25T07:54:37.876Z,8.80
2022-08-25T07:57:09.982Z,3.95
2022-08-25T07:59:43.752Z,3.88
2022-08-25T08:02:18.693Z,9.00
2022-08-25T08:04:53.853Z,4.80
2022-08-25T08:07:42.347Z,6.63
2022-08-25T08:13:02.275Z,10.30
2022-08-25T08:15:30.480Z,14.05
2022-08-25T08:17:59.337Z,10.73
2022-08-25T08:20:28.981Z,6.88
2022-08-25T08:22:57.225Z,3.92
2022-08-25T08:25:27.176Z,6.53
2022-08-25T08:27:56.473Z,6.73
2022-08-25T08:30:26.003Z,8.30
2022-08-25T08:33:11.326Z,6.18
2022-08-25T08:35:41.518Z,10.77
2022-08-25T08:38:14.860Z,5.47
2022-08-25T08:41:40.231Z,5.95
2022-08-25T08:44:36.385Z,5.38
2022-08-25T08:47:17.027Z,6.10
2022-08-25T08:50:04.148Z,6.35
2022-08-25T08:52:54.340Z,11.73
2022-08-25T08:55:38.552Z,5.10
2022-08-25T08:58:13.029Z,6.68
2022-08-25T09:00:52.176Z,5.90
2022-08-25T09:03:43.088Z,6.20
2022-08-25T09:06:23.035Z,9.20
2022-08-25T09:08:51.514Z,4.35
2022-08-25T09:11:23.177Z,12.35
2022-08-25T09:14:02.495Z,6.32
2022-08-25T09:17:06.166Z,3.97
2022-08-25T09:19:42.340Z,12.00
2022-08-25T09:22:36.846Z,6.20
2022-08-25T09:25:39.817Z,5.65
2022-08-25T09:28:35.947Z,4.80
2022-08-25T09:31:29.167Z,3.33
2022-08-25T09:34:00.670Z,7.28
2022-08-25T09:36:35.440Z,3.38
2022-08-25T09:39:07.411Z,3.45
2022-08-25T09:41:51.559Z,7.28
2022-08-25T09:44:19.373Z,4.57
2022-08-25T09:47:05.254Z,5.32
2022-08-25T09:49:45.029Z,3.25
2022-08-25T09:52:25.213Z,5.55
2022-08-25T09:54:59.460Z,5.43
2022-08-25T09:57:37.102Z,7.55
2022-08-25T10:00:13.179Z,7.00
2022-08-25T10:02:44.104Z,4.45
2022-08-25T10:05:26.112Z,12.35
2022-08-25T10:07:58.651Z,6.22
2022-08-25T10:10:33.595Z,2.55
2022-08-25T10:13:03.663Z,6.43
2022-08-25T10:15:37.439Z,6.05
2022-08-25T10:18:34.703Z,4.43
2022-08-25T10:21:14.705Z,3.50
2022-08-25T10:23:52.579Z,3.15
2022-08-25T10:26:41.292Z,4.60
2022-08-25T10:29:49.485Z,3.88
2022-08-25T10:32:40.302Z,5.05
2022-08-25T10:37:51.278Z,7.13
2022-08-25T10:40:47.619Z,5.40
2022-08-25T10:43:44.742Z,4.25
2022-08-25T10:46:15.413Z,2.60
2022-08-25T10:48:52.784Z,5.00
2022-08-25T10:51:31.917Z,5.05
2022-08-25T10:54:24.129Z,4.68
2022-08-25T10:57:13.631Z,8.38
2022-08-25T10:59:59.585Z,4.40
2022-08-25T11:02:41.380Z,4.55
2022-08-25T11:05:24.566Z,2.13
2022-08-25T11:08:01.074Z,3.47
2022-08-25T11:10:46.219Z,4.43
2022-08-25T11:13:26.206Z,4.22
2022-08-25T11:16:16.554Z,4.95
2022-08-25T11:18:57.590Z,3.58
2022-08-25T11:21:51.262Z,2.17
2022-08-25T11:24:29.706Z,2.67
2022-08-25T11:26:58.041Z,3.90
2022-08-25T11:29:35.387Z,3.92
2022-08-25T11:32:04.943Z,4.57
2022-08-25T11:34:35.590Z,4.95
2022-08-25T11:37:30.340Z,3.63
2022-08-25T11:40:17.366Z,3.15
2022-08-25T11:42:52.066Z,3.83
2022-08-25T11:45:30.932Z,7.22
2022-08-25T11:48:23.311Z,4.18
2022-08-25T11:51:03.098Z,3.08
2022-08-25T11:53:35.706Z,6.97
2022-08-25T11:56:12.654Z,4.05
2022-08-25T11:58:49.883Z,2.75
2022-08-25T12:01:44.701Z,10.77
2022-08-25T12:04:33.871Z,7.13
2022-08-25T12:07:06.175Z,3.13
2022-08-25T12:09:54.581Z,4.03
2022-08-25T12:12:36.301Z,6.15
2022-08-25T12:15:23.636Z,6.53
2022-08-25T12:18:15.183Z,5.55
2022-08-25T12:20:55.131Z,6.07
2022-08-25T12:23:36.366Z,5.00
2022-08-25T12:26:40.775Z,3.03
2022-08-25T12:29:17.044Z,4.93
2022-08-25T12:32:13.670Z,6.18
2022-08-25T12:35:07.239Z,5.55
2022-08-25T12:37:35.504Z,5.43
2022-08-25T12:40:06.452Z,8.15
2022-08-25T12:42:40.868Z,5.22
2022-08-25T12:45:32.716Z,4.50
2022-08-25T12:48:29.434Z,2.58
2022-08-25T12:51:19.715Z,7.13
2022-08-25T12:54:10.860Z,3.38
2022-08-25T12:56:45.398Z,6.50
2022-08-25T12:59:22.032Z,9.27
2022-08-25T13:02:09.108Z,8.65
2022-08-25T13:05:11.235Z,2.72
2022-08-25T13:07:56.164Z,4.00
2022-08-25T13:10:39.803Z,5.78
2022-08-25T13:13:28.642Z,2.90
2022-08-25T13:16:07.211Z,9.20
2022-08-25T13:18:37.275Z,6.18
2022-08-25T13:21:15.843Z,3.20
2022-08-25T13:23:46.422Z,6.43
2022-08-25T13:26:24.351Z,4.18
2022-08-25T13:29:01.775Z,3.55
2022-08-25T13:31:34.050Z,3.05
2022-08-25T13:34:08.562Z,3.30
2022-08-25T13:37:06.029Z,4.45
2022-08-25T13:39:55.032Z,7.82
2022-08-25T13:42:28.842Z,5.00
2022-08-25T13:44:57.004Z,8.13
2022-08-25T13:47:45.760Z,5.05
2022-08-25T13:50:31.235Z,7.10
2022-08-25T13:53:25.456Z,6.80
2022-08-25T13:55:58.834Z,5.22
2022-08-25T13:58:38.638Z,8.80
2022-08-25T14:01:23.074Z,4.15
2022-08-25T14:04:24.697Z,9.13
2022-08-25T14:07:33.647Z,6.53
2022-08-25T14:10:05.062Z,6.68
2022-08-25T14:12:34.925Z,4.80
2022-08-25T14:15:04.720Z,3.28
2022-08-25T14:17:39.707Z,4.53
2022-08-25T14:20:29.066Z,7.15
2022-08-25T14:23:09.690Z,6.68
2022-08-25T14:25:40.473Z,4.28
2022-08-25T14:30:46.534Z,6.25
2022-08-25T14:33:16.171Z,8.80
2022-08-25T14:35:47.404Z,8.75
2022-08-25T14:38:15.843Z,8.32
2022-08-25T14:40:45.246Z,8.27
2022-08-25T14:43:14.881Z,10.88
2022-08-25T14:45:45.387Z,3.58
2022-08-25T14:48:29.579Z,2.23
2022-08-25T14:50:59.746Z,6.40
2022-08-25T14:53:28.087Z,10.32
2022-08-25T14:55:58.779Z,11.88
2022-08-25T14:58:33.964Z,5.75
2022-08-25T15:01:02.675Z,5.72
2022-08-25T15:03:37.467Z,4.38
2022-08-25T15:06:06.316Z,13.13
2022-08-25T15:08:52.542Z,7.22
2022-08-25T15:11:20.040Z,12.88
2022-08-25T15:13:49.763Z,4.10
2022-08-25T15:16:39.447Z,7.88
2022-08-25T15:19:14.467Z,6.25
2022-08-25T15:21:44.618Z,6.35
2022-08-25T15:24:17.414Z,5.28
2022-08-25T15:26:46.981Z,4.78
2022-08-25T15:29:14.757Z,7.32
2022-08-25T15:31:43.246Z,3.80
2022-08-25T15:34:12.284Z,4.03
2022-08-25T15:36:40.294Z,2.85
2022-08-25T15:39:10.134Z,6.10
2022-08-25T15:41:38.378Z,4.45
2022-08-25T15:44:07.763Z,4.28
2022-08-25T15:46:36.772Z,3.72
2022-08-25T15:49:07.947Z,6.50
2022-08-25T15:51:35.729Z,5.43
2022-08-25T15:54:04.333Z,4.47
2022-08-25T15:56:31.941Z,5.35
2022-08-25T15:58:59.443Z,5.60
2022-08-25T16:01:30.519Z,6.32
2022-08-25T16:03:58.714Z,5.85
2022-08-25T16:06:26.596Z,3.45
2022-08-25T16:08:54.485Z,7.75
2022-08-25T16:11:25.167Z,2.45
2022-08-25T16:13:53.681Z,8.63
2022-08-25T16:16:23.870Z,5.40
2022-08-25T16:18:51.929Z,4.57
2022-08-25T16:21:25.605Z,5.45
2022-08-25T16:24:05.488Z,6.47
2022-08-25T16:26:37.709Z,4.47
2022-08-25T16:29:16.549Z,5.38
2022-08-25T16:31:45.350Z,4.60
2022-08-25T16:34:21.111Z,4.90
2022-08-25T16:36:48.606Z,6.45
2022-08-25T16:39:21.215Z,4.00
2022-08-25T16:41:50.197Z,7.22
2022-08-25T16:44:22.410Z,3.28
2022-08-25T16:46:54.221Z,7.32
2022-08-25T16:49:24.528Z,7.75
2022-08-25T16:51:57.008Z,7.15
2022-08-25T16:54:44.935Z,5.30
2022-08-25T16:57:12.983Z,7.80
2022-08-25T16:59:42.474Z,4.20
2022-08-25T17:02:12.026Z,6.85
2022-08-25T17:04:40.728Z,5.03
2022-08-25T17:07:08.495Z,4.97
2022-08-25T17:09:36.398Z,9.25
2022-08-25T17:12:05.584Z,5.53
2022-08-25T17:14:33.171Z,8.63
2022-08-25T17:17:01.136Z,10.32
2022-08-25T17:19:28.971Z,5.80
2022-08-25T17:21:58.495Z,14.82
2022-08-25T17:24:29.553Z,7.15
2022-08-25T17:27:00.187Z,5.82
2022-08-25T17:29:29.426Z,7.90
2022-08-25T17:31:57.622Z,3.35
2022-08-25T17:34:25.372Z,11.60
2022-08-25T17:36:54.500Z,6.82
2022-08-25T17:39:23.089Z,10.57
2022-08-25T17:41:51.635Z,9.45
2022-08-25T17:44:19.770Z,7.00
2022-08-25T17:46:48.129Z,14.32
2022-08-25T17:49:17.154Z,12.55
2022-08-25T17:51:45.213Z,8.15
2022-08-25T17:54:13.378Z,6.15
2022-08-25T17:56:40.889Z,9.23
2022-08-25T17:59:08.825Z,9.05
2022-08-25T18:01:40.569Z,6.03
2022-08-25T18:04:17.398Z,7.90
2022-08-25T18:06:47.574Z,6.25
2022-08-25T18:09:16.201Z,7.38
2022-08-25T18:11:45.338Z,6.75
2022-08-25T18:14:14.449Z,7.55
2022-08-25T18:16:42.460Z,8.30
2022-08-25T18:19:10.927Z,10.10
2022-08-25T18:21:39.307Z,8.88
2022-08-25T18:24:07.377Z,5.78
2022-08-25T18:26:36.222Z,6.07
2022-08-25T18:29:05.129Z,9.35
2022-08-25T18:31:32.599Z,12.68
2022-08-25T18:34:00.352Z,7.80
2022-08-25T18:36:28.133Z,8.02
2022-08-25T18:39:13.962Z,13.27
2022-08-25T18:41:42.860Z,13.45
2022-08-25T18:44:12.751Z,11.27
2022-08-25T18:46:45.601Z,9.35
2022-08-25T18:49:15.909Z,8.35
2022-08-25T18:51:45.090Z,21.20
2022-08-25T18:54:23.133Z,10.77
2022-08-25T18:56:54.682Z,9.43
2022-08-25T18:59:23.372Z,15.45
2022-08-25T19:01:53.934Z,7.30
2022-08-25T19:04:28.635Z,15.02
2022-08-25T19:07:01.044Z,20.20
2022-08-25T19:09:29.367Z,20.33
2022-08-25T19:11:59.482Z,18.63
2022-08-25T19:14:28.155Z,13.52
2022-08-25T19:16:58.023Z,12.75
2022-08-25T19:19:25.661Z,12.02
2022-08-25T19:21:53.206Z,13.48
2022-08-25T19:24:21.567Z,19.50
2022-08-25T19:26:52.604Z,22.90
2022-08-25T19:29:22.400Z,11.40
2022-08-25T19:31:51.077Z,9.25
2022-08-25T19:34:25.348Z,12.65
2022-08-25T19:36:57.713Z,18.63
2022-08-25T19:39:26.079Z,42.22
2022-08-25T19:41:53.881Z,37.75
2022-08-25T19:44:21.415Z,32.72
2022-08-25T19:46:50.736Z,25.00
2022-08-25T19:49:26.314Z,24.77
2022-08-25T19:51:55.340Z,18.27
2022-08-25T19:54:31.399Z,18.67
2022-08-25T19:56:59.515Z,18.30
2022-08-25T19:59:40.608Z,13.77
2022-08-25T20:02:20.704Z,16.55
2022-08-25T20:04:51.039Z,13.40
2022-08-25T20:07:24.389Z,13.18
2022-08-25T20:09:53.443Z,14.35
2022-08-25T20:12:22.652Z,12.20
2022-08-25T20:14:53.488Z,10.70
2022-08-25T20:17:24.237Z,14.73
2022-08-25T20:19:54.526Z,12.95
2022-08-25T20:22:26.229Z,13.57
2022-08-25T20:24:59.601Z,11.23
2022-08-25T20:27:33.748Z,12.05
2022-08-25T20:30:03.229Z,15.98
2022-08-25T20:32:32.577Z,5.32
2022-08-25T20:35:01.070Z,5.13
2022-08-25T20:37:29.405Z,6.43
2022-08-25T20:39:57.555Z,8.07
2022-08-25T20:42:25.847Z,7.82
2022-08-25T20:44:54.723Z,7.15
2022-08-25T20:47:22.692Z,6.32
2022-08-25T20:49:50.474Z,6.60
2022-08-25T20:52:19.917Z,19.98
2022-08-25T20:54:50.422Z,7.03
2022-08-25T20:57:24.313Z,9.32
2022-08-25T20:59:53.473Z,8.02
2022-08-25T21:02:21.824Z,7.40
2022-08-25T21:04:50.608Z,7.53
2022-08-25T21:07:19.475Z,13.73
2022-08-25T21:09:47.598Z,6.80
2022-08-25T21:12:15.685Z,8.18
2022-08-25T21:14:44.222Z,6.82
2022-08-25T21:17:13.153Z,6.72
2022-08-25T21:19:41.879Z,7.95
2022-08-25T21:22:10.658Z,7.97
2022-08-25T21:24:39.173Z,12.45
2022-08-25T21:27:07.239Z,6.43
2022-08-25T21:29:34.819Z,11.10
2022-08-25T21:32:02.914Z,8.65
2022-08-25T21:34:31.506Z,11.45
2022-08-25T21:36:59.403Z,7.82
2022-08-25T21:39:29.718Z,6.82
2022-08-25T21:42:00.679Z,20.60
2022-08-25T21:44:29.361Z,12.23
2022-08-25T21:46:57.114Z,7.30
2022-08-25T21:49:25.573Z,7.07
2022-08-25T21:52:03.247Z,8.35
2022-08-25T21:54:31.868Z,5.93
2022-08-25T21:57:06.007Z,10.63
2022-08-25T21:59:37.071Z,10.25
2022-08-25T22:02:11.447Z,8.27
2022-08-25T22:04:39.648Z,7.72
2022-08-25T22:07:08.249Z,7.13
2022-08-25T22:09:36.719Z,13.45
2022-08-25T22:12:05.535Z,8.80
2022-08-25T22:14:34.326Z,7.30
2022-08-25T22:17:02.569Z,9.50
2022-08-25T22:19:30.085Z,9.15
2022-08-25T22:22:01.422Z,5.13
2022-08-25T22:24:29.212Z,5.60
2022-08-25T22:26:57.087Z,10.27
2022-08-25T22:29:26.241Z,13.85
2022-08-25T22:32:00.640Z,11.32
2022-08-25T22:34:34.676Z,14.27
2022-08-25T22:37:07.682Z,9.15
2022-08-25T22:39:36.088Z,8.45
2022-08-25T22:42:06.209Z,9.88
2022-08-25T22:44:37.277Z,9.02
2022-08-25T22:47:05.663Z,9.05
2022-08-25T22:49:35.406Z,5.63
2022-08-25T22:52:03.129Z,8.23
2022-08-25T22:54:30.654Z,13.65
2022-08-25T22:57:05.915Z,9.05
2022-08-25T22:59:34.498Z,11.43
2022-08-25T23:02:02.214Z,8.98
2022-08-25T23:04:30.066Z,6.43
2022-08-25T23:06:57.614Z,13.50
2022-08-25T23:09:25.290Z,14.82
2022-08-25T23:11:52.826Z,7.13
2022-08-25T23:14:21.743Z,8.18
2022-08-25T23:16:50.222Z,6.53
2022-08-25T23:19:18.793Z,7.70
2022-08-25T23:22:06.061Z,9.30
2022-08-25T23:24:33.855Z,6.78
2022-08-25T23:27:03.948Z,10.95
2022-08-25T23:29:34.350Z,7.13
2022-08-25T23:32:02.852Z,10.57
2022-08-25T23:34:30.842Z,7.97
2022-08-25T23:37:02.242Z,8.65
2022-08-25T23:39:30.207Z,8.07
2022-08-25T23:41:58.568Z,7.80
2022-08-25T23:44:27.510Z,11.15
2022-08-25T23:46:55.388Z,10.10
2022-08-25T23:49:25.579Z,8.20
2022-08-25T23:51:55.064Z,12.18
2022-08-25T23:54:22.765Z,7.50
2022-08-25T23:56:59.297Z,10.35
2022-08-25T23:59:26.892Z,9.57
